Time;durP1;ratioP1;P1;durP2;ratioP2;P2;SDS_P1;SDS_P2;PMS_P1;PMS_P2;Temp;Humidity;BMP_temperature;BMP_pressure;BME280_temperature;BME280_humidity;BME280_pressure;Samples;Min_cycle;Max_cycle;Signal;HPM_P1;HPM_P2
2023/09/22 00:00:41;;;;;;;8.45;3.67;;;;;;;12.37;100.00;99850.06;6062286;19;20588;-72
2023/09/22 00:02:49;;;;;;;9.40;3.50;;;;;;;12.35;100.00;99846.72;6053814;19;20288;-72
2023/09/22 00:04:57;;;;;;;9.85;3.67;;;;;;;12.42;100.00;99845.34;6054683;19;20337;-72
2023/09/22 00:07:02;;;;;;;10.32;3.97;;;;;;;12.40;100.00;99838.50;6063968;19;20519;-72
2023/09/22 00:09:08;;;;;;;9.70;3.80;;;;;;;12.35;100.00;99841.44;6065994;19;20015;-72
2023/09/22 00:11:13;;;;;;;11.23;4.32;;;;;;;12.35;100.00;99837.94;6062996;19;20336;-72
2023/09/22 00:13:16;;;;;;;17.17;6.95;;;;;;;12.43;100.00;99833.88;6064684;19;20277;-72
2023/09/22 00:15:21;;;;;;;24.20;7.72;;;;;;;12.43;100.00;99819.88;6062465;19;20101;-73
2023/09/22 00:17:28;;;;;;;23.13;8.13;;;;;;;12.41;100.00;99833.13;6061202;19;20359;-72
2023/09/22 00:19:35;;;;;;;25.73;9.27;;;;;;;12.45;100.00;99846.94;6063907;19;20014;-72
2023/09/22 00:21:41;;;;;;;27.08;10.00;;;;;;;12.46;100.00;99859.19;6065519;19;20093;-73
2023/09/22 00:23:49;;;;;;;27.45;10.07;;;;;;;12.51;100.00;99859.75;6058035;19;20388;-74
2023/09/22 00:25:55;;;;;;;31.30;12.43;;;;;;;12.51;100.00;99870.28;6064119;19;20726;-72
2023/09/22 00:28:00;;;;;;;43.50;12.75;;;;;;;12.52;100.00;99864.91;6059534;19;20268;-73
2023/09/22 00:30:08;;;;;;;37.85;14.48;;;;;;;12.50;100.00;99865.94;6058288;19;20471;-73
2023/09/22 00:32:14;;;;;;;36.75;13.60;;;;;;;12.47;100.00;99858.25;6063708;19;20460;-73
2023/09/22 00:34:19;;;;;;;35.90;12.50;;;;;;;12.44;100.00;99864.56;6063587;19;20014;-73
2023/09/22 00:36:28;;;;;;;40.65;15.25;;;;;;;12.45;100.00;99858.34;6065753;19;20011;-73
2023/09/22 00:38:33;;;;;;;37.22;15.48;;;;;;;12.40;100.00;99859.56;6073115;19;20418;-72
2023/09/22 00:40:38;;;;;;;35.70;12.05;;;;;;;12.36;100.00;99860.72;6064161;19;21042;-74
2023/09/22 00:42:43;;;;;;;37.33;13.50;;;;;;;12.31;100.00;99855.75;6067141;19;20019;-72
2023/09/22 00:44:48;;;;;;;38.75;13.23;;;;;;;12.33;100.00;99853.84;6065588;19;20199;-72
2023/09/22 00:46:54;;;;;;;32.95;12.52;;;;;;;12.31;100.00;99858.38;6064009;19;22639;-72
2023/09/22 00:49:02;;;;;;;33.92;14.30;;;;;;;12.23;100.00;99872.03;6075151;19;20518;-72
2023/09/22 00:51:07;;;;;;;31.58;13.07;;;;;;;12.25;100.00;99870.16;6063136;19;20015;-72
2023/09/22 00:53:15;;;;;;;34.80;13.07;;;;;;;12.25;100.00;99870.16;6063958;19;20455;-73
2023/09/22 00:55:21;;;;;;;33.28;14.57;;;;;;;12.26;100.00;99871.81;6055903;19;20562;-72
2023/09/22 00:57:29;;;;;;;34.92;13.52;;;;;;;12.29;100.00;99862.88;6065400;19;20010;-73
2023/09/22 00:59:35;;;;;;;34.97;14.88;;;;;;;12.28;100.00;99869.09;6071025;19;20011;-72
2023/09/22 01:01:41;;;;;;;31.83;14.38;;;;;;;12.26;100.00;99863.91;6071874;19;20305;-72
2023/09/22 01:03:48;;;;;;;29.27;13.40;;;;;;;12.28;100.00;99863.84;6067894;19;20232;-73
2023/09/22 01:05:54;;;;;;;32.83;13.98;;;;;;;12.27;100.00;99864.78;6069675;19;20525;-72
2023/09/22 01:07:59;;;;;;;34.03;13.90;;;;;;;12.29;100.00;99863.72;6064704;19;20227;-72
2023/09/22 01:10:12;;;;;;;29.35;13.20;;;;;;;12.32;100.00;99867.13;6066371;19;20480;-73
2023/09/22 01:12:18;;;;;;;39.65;14.75;;;;;;;12.29;100.00;99866.34;6063455;19;20007;-74
2023/09/22 01:14:23;;;;;;;33.88;14.15;;;;;;;12.26;100.00;99856.03;6067128;19;20095;-74
2023/09/22 01:16:28;;;;;;;31.33;13.35;;;;;;;12.26;100.00;99842.84;6065190;19;20357;-72
2023/09/22 01:18:34;;;;;;;34.80;13.02;;;;;;;12.26;100.00;99847.28;6070568;19;20535;-72
2023/09/22 01:20:41;;;;;;;31.02;12.57;;;;;;;12.25;100.00;99849.06;6066748;19;20027;-72
2023/09/22 01:22:50;;;;;;;35.15;13.40;;;;;;;12.23;100.00;99844.84;6062499;19;20010;-73
2023/09/22 01:24:55;;;;;;;33.42;13.35;;;;;;;12.24;100.00;99843.88;6065383;19;20339;-72
2023/09/22 01:27:01;;;;;;;31.70;13.18;;;;;;;12.25;100.00;99837.69;6058914;19;20089;-72
2023/09/22 01:29:08;;;;;;;30.00;12.30;;;;;;;12.24;100.00;99836.84;6067841;19;20010;-72
2023/09/22 01:31:13;;;;;;;27.98;13.80;;;;;;;12.25;100.00;99830.63;6068729;19;20040;-72
2023/09/22 01:33:20;;;;;;;29.85;11.82;;;;;;;12.23;100.00;99832.50;6071790;19;20086;-74
2023/09/22 01:35:29;;;;;;;26.80;11.70;;;;;;;12.22;100.00;99838.75;6066269;19;20400;-72
2023/09/22 01:37:38;;;;;;;29.77;10.25;;;;;;;12.27;100.00;99833.19;6067246;19;20281;-74
2023/09/22 01:39:49;;;;;;;20.88;9.55;;;;;;;12.29;100.00;99826.84;6073196;19;20432;-72
2023/09/22 01:41:57;;;;;;;25.55;10.38;;;;;;;12.26;100.00;99826.22;6085420;19;20472;-85
2023/09/22 01:44:03;;;;;;;26.88;9.73;;;;;;;12.22;100.00;99825.56;6100128;19;20019;-83
2023/09/22 01:46:12;;;;;;;26.38;10.15;;;;;;;12.23;100.00;99819.34;6079789;19;20420;-84
2023/09/22 01:48:20;;;;;;;29.20;9.57;;;;;;;12.20;100.00;99816.91;6098058;19;20471;-83
2023/09/22 01:50:30;;;;;;;23.52;10.70;;;;;;;12.25;100.00;99822.72;6096845;19;20022;-83
2023/09/22 01:52:37;;;;;;;25.33;11.60;;;;;;;12.25;100.00;99825.38;6089764;19;20006;-85
2023/09/22 01:54:50;;;;;;;28.85;11.18;;;;;;;12.24;100.00;99820.19;6095541;19;20436;-85
2023/09/22 01:57:04;;;;;;;32.70;11.15;;;;;;;12.28;100.00;99822.53;6081880;19;20029;-83
2023/09/22 01:59:15;;;;;;;30.10;10.30;;;;;;;12.25;100.00;99814.84;6103230;19;20357;-85
2023/09/22 02:01:23;;;;;;;25.45;10.10;;;;;;;12.27;100.00;99831.38;6102030;19;20446;-83
2023/09/22 02:03:27;;;;;;;31.23;10.48;;;;;;;12.28;100.00;99826.97;6094221;19;20433;-82
2023/09/22 02:05:35;;;;;;;32.80;10.68;;;;;;;12.34;100.00;99821.28;6097129;19;20010;-84
2023/09/22 02:07:40;;;;;;;26.35;9.15;;;;;;;12.30;100.00;99820.66;6097510;19;20022;-86
2023/09/22 02:09:46;;;;;;;24.60;9.90;;;;;;;12.26;100.00;99803.34;6100955;19;20455;-84
2023/09/22 02:11:54;;;;;;;24.52;9.30;;;;;;;12.27;100.00;99815.59;6105126;19;20042;-84
2023/09/22 02:14:07;;;;;;;23.20;8.32;;;;;;;12.24;100.00;99813.16;6100728;19;20021;-84
2023/09/22 02:16:22;;;;;;;22.77;9.95;;;;;;;12.20;100.00;99810.81;6102598;19;20040;-85
2023/09/22 02:18:29;;;;;;;27.88;8.65;;;;;;;12.29;100.00;99821.56;6103308;19;20007;-84
2023/09/22 02:20:40;;;;;;;22.17;7.72;;;;;;;12.32;100.00;99819.69;6098043;19;20028;-84
2023/09/22 02:22:45;;;;;;;20.17;6.93;;;;;;;12.26;100.00;99798.06;6095967;19;20518;-86
2023/09/22 02:25:00;;;;;;;17.83;7.63;;;;;;;12.30;100.00;99818.03;6097304;19;20082;-84
2023/09/22 02:27:15;;;;;;;22.25;8.20;;;;;;;12.32;100.00;99814.44;6080711;19;20469;-84
2023/09/22 02:29:28;;;;;;;19.73;8.05;;;;;;;12.32;100.00;99814.44;6109956;19;20010;-84
2023/09/22 02:31:38;;;;;;;18.15;7.35;;;;;;;12.33;100.00;99810.88;6104793;19;20015;-84
2023/09/22 02:33:48;;;;;;;20.98;7.85;;;;;;;12.33;100.00;99802.97;6096456;19;20081;-84
2023/09/22 02:36:09;;;;;;;18.90;8.00;;;;;;;12.32;100.00;99812.63;6104199;19;20014;-84
2023/09/22 02:38:15;;;;;;;21.80;7.75;;;;;;;12.31;100.00;99818.84;6102710;19;20022;-83
2023/09/22 02:40:22;;;;;;;24.50;10.05;;;;;;;12.35;100.00;99806.31;6102384;19;20165;-84
2023/09/22 02:42:28;;;;;;;24.85;8.25;;;;;;;12.38;100.00;99814.91;6102884;19;20184;-85
2023/09/22 02:44:38;;;;;;;22.40;9.20;;;;;;;12.35;100.00;99806.31;6091328;19;20006;-84
2023/09/22 02:46:47;;;;;;;26.65;9.55;;;;;;;12.33;100.00;99810.88;6103929;19;20014;-85
2023/09/22 02:48:55;;;;;;;29.30;10.70;;;;;;;12.33;100.00;99806.44;6105291;19;20097;-83
2023/09/22 02:51:02;;;;;;;27.60;9.45;;;;;;;12.34;100.00;99797.56;6098283;19;20027;-83
2023/09/22 02:53:09;;;;;;;24.88;10.80;;;;;;;12.31;100.00;99797.78;6104355;19;20087;-83
2023/09/22 02:55:13;;;;;;;29.40;10.88;;;;;;;12.30;100.00;99807.47;6106565;19;20078;-83
2023/09/22 02:57:22;;;;;;;27.83;11.45;;;;;;;12.28;100.00;99808.53;6100553;19;20029;-83
2023/09/22 02:59:30;;;;;;;25.80;9.48;;;;;;;12.29;100.00;99800.50;6102848;19;20007;-84
2023/09/22 03:01:39;;;;;;;30.88;11.45;;;;;;;12.28;100.00;99816.41;6099281;19;20047;-84
2023/09/22 03:03:54;;;;;;;30.45;10.38;;;;;;;12.38;100.00;99816.69;6100022;19;20081;-83
2023/09/22 03:06:04;;;;;;;26.77;10.43;;;;;;;12.35;100.00;99803.69;6086803;19;20140;-84
2023/09/22 03:08:10;;;;;;;24.80;9.27;;;;;;;12.33;100.00;99806.44;6086886;19;20036;-85
2023/09/22 03:10:21;;;;;;;29.35;9.88;;;;;;;12.40;100.00;99810.38;6090081;19;20046;-85
2023/09/22 03:12:26;;;;;;;29.45;11.70;;;;;;;12.36;100.00;99802.75;6086896;19;20510;-85
2023/09/22 03:14:38;;;;;;;31.08;9.18;;;;;;;12.34;100.00;99807.28;6078364;19;20363;-85
2023/09/22 03:16:56;;;;;;;27.13;9.85;;;;;;;12.37;100.00;99812.34;6068745;19;20007;-84
2023/09/22 03:19:13;;;;;;;25.52;9.10;;;;;;;12.38;100.00;99809.63;6066008;19;20487;-83
2023/09/22 03:21:39;;;;;;;23.20;9.07;;;;;;;12.40;100.00;99806.88;6085364;19;20453;-84
2023/09/22 03:23:59;;;;;;;27.15;9.02;;;;;;;12.36;100.00;99805.41;6067454;19;20462;-84
2023/09/22 03:26:12;;;;;;;22.27;8.13;;;;;;;12.43;100.00;99806.69;6076527;19;20555;-84
2023/09/22 03:28:26;;;;;;;22.23;9.60;;;;;;;12.41;100.00;99805.94;6089909;19;20508;-84
2023/09/22 03:30:39;;;;;;;23.55;8.48;;;;;;;12.33;100.00;99801.16;6085137;19;20468;-84
2023/09/22 03:32:52;;;;;;;24.70;9.00;;;;;;;12.41;100.00;99800.69;6063387;19;20018;-85
2023/09/22 03:35:06;;;;;;;26.63;8.82;;;;;;;12.40;100.00;99797.19;6067970;19;20247;-85
2023/09/22 03:37:15;;;;;;;23.67;9.23;;;;;;;12.50;100.00;99802.69;6067021;19;20448;-85
2023/09/22 03:39:26;;;;;;;27.05;10.52;;;;;;;12.37;100.00;99786.84;6086319;19;20011;-84
2023/09/22 03:41:37;;;;;;;25.73;8.32;;;;;;;12.42;100.00;99794.44;6089811;19;20080;-85
2023/09/22 03:43:45;;;;;;;19.63;8.68;;;;;;;12.44;100.00;99792.56;6082303;19;20741;-84
2023/09/22 03:45:56;;;;;;;20.08;8.98;;;;;;;12.44;100.00;99795.19;6084121;19;20079;-84
2023/09/22 03:48:09;;;;;;;22.58;9.25;;;;;;;12.43;100.00;99796.16;6079656;19;20071;-84
2023/09/22 03:50:18;;;;;;;22.00;8.75;;;;;;;12.40;100.00;99796.34;6047227;19;20065;-85
2023/09/22 03:52:27;;;;;;;23.52;8.20;;;;;;;12.42;100.00;99791.81;6060020;19;20566;-84
2023/09/22 03:54:39;;;;;;;;;;;;;;;12.44;100.00;99796.03;6067187;19;20018;-86
2023/09/22 03:56:48;;;;;;;22.23;8.85;;;;;;;12.46;100.00;99794.16;6080434;19;20480;-85
2023/09/22 03:58:59;;;;;;;20.52;8.70;;;;;;;12.46;100.00;99793.31;6064683;19;21221;-84
2023/09/22 04:01:08;;;;;;;22.70;8.50;;;;;;;12.53;100.00;99794.59;6075065;19;20078;-86
2023/09/22 04:03:18;;;;;;;24.23;9.20;;;;;;;12.56;100.00;99796.19;6047476;19;20050;-84
2023/09/22 04:05:37;;;;;;;24.65;10.20;;;;;;;12.65;100.00;99800.88;6059425;19;20018;-85
2023/09/22 04:07:47;;;;;;;24.20;9.40;;;;;;;12.67;100.00;99805.09;6060535;19;20003;-85
2023/09/22 04:09:58;;;;;;;22.13;9.80;;;;;;;12.68;100.00;99785.69;6083261;19;20025;-85
2023/09/22 04:12:19;;;;;;;20.15;8.73;;;;;;;12.67;100.00;99788.44;6068707;19;20460;-85
2023/09/22 04:14:28;;;;;;;20.70;8.60;;;;;;;12.66;100.00;99799.91;6060437;19;20014;-84
2023/09/22 04:16:38;;;;;;;19.95;8.82;;;;;;;12.72;100.00;99802.16;6079533;19;20388;-84
2023/09/22 04:18:54;;;;;;;17.83;8.57;;;;;;;12.62;100.00;99794.00;6064006;19;20388;-85
2023/09/22 04:21:04;;;;;;;19.13;8.77;;;;;;;12.64;100.00;99810.56;6084547;19;20010;-84
2023/09/22 04:23:12;;;;;;;19.83;8.48;;;;;;;12.60;100.00;99798.53;6079202;19;20043;-85
2023/09/22 04:25:29;;;;;;;20.08;8.68;;;;;;;12.63;100.00;99808.03;6081660;19;20060;-83
2023/09/22 04:27:42;;;;;;;16.20;7.95;;;;;;;12.77;100.00;99809.75;6082920;19;20140;-84
2023/09/22 04:29:53;;;;;;;20.83;9.70;;;;;;;12.81;100.00;99816.50;6065449;19;20011;-86
2023/09/22 04:32:04;;;;;;;22.23;9.35;;;;;;;12.81;100.00;99801.53;6073618;19;20420;-86
2023/09/22 04:34:19;;;;;;;21.70;10.48;;;;;;;12.84;100.00;99817.16;6081710;19;20171;-85
2023/09/22 04:36:31;;;;;;;18.17;8.85;;;;;;;12.81;100.00;99813.88;6066110;19;20011;-85
2023/09/22 04:38:41;;;;;;;16.95;9.13;;;;;;;12.81;100.00;99819.16;6065313;19;20018;-85
2023/09/22 04:41:01;;;;;;;18.40;8.65;;;;;;;12.86;100.00;99822.31;6083346;19;20115;-85
2023/09/22 04:43:07;;;;;;;21.13;8.70;;;;;;;12.84;100.00;99811.03;6083037;19;20672;-84
2023/09/22 04:45:14;;;;;;;17.13;8.15;;;;;;;12.88;100.00;99817.81;6083438;19;20458;-84
2023/09/22 04:47:22;;;;;;;17.98;7.65;;;;;;;12.91;100.00;99812.31;6082838;19;20222;-85
2023/09/22 04:49:40;;;;;;;17.83;8.52;;;;;;;12.93;100.00;99829.72;6085308;19;20010;-85
2023/09/22 04:51:51;;;;;;;16.60;8.20;;;;;;;12.89;100.00;99817.69;6090055;19;20663;-85
2023/09/22 04:54:02;;;;;;;18.52;8.70;;;;;;;12.87;100.00;99816.94;6071188;19;20006;-85
2023/09/22 04:56:09;;;;;;;18.23;7.72;;;;;;;12.84;100.00;99822.41;6078906;19;20014;-85
2023/09/22 04:58:22;;;;;;;17.13;8.63;;;;;;;12.88;100.00;99823.91;6083740;19;20019;-84
2023/09/22 05:00:33;;;;;;;14.90;8.05;;;;;;;12.88;100.00;99828.34;6081065;19;20128;-85
2023/09/22 05:02:44;;;;;;;16.23;8.38;;;;;;;12.86;100.00;99819.69;6084250;19;20039;-83
2023/09/22 05:04:56;;;;;;;12.57;6.85;;;;;;;12.81;100.00;99808.59;6086807;19;20443;-85
2023/09/22 05:07:05;;;;;;;16.48;7.68;;;;;;;12.83;100.00;99825.19;6089945;19;20035;-83
2023/09/22 05:09:14;;;;;;;16.15;7.72;;;;;;;12.89;100.00;99833.50;6091762;19;20014;-85
2023/09/22 05:11:31;;;;;;;18.90;7.80;;;;;;;12.86;100.00;99830.25;6091016;19;20503;-85
2023/09/22 05:13:40;;;;;;;12.30;7.30;;;;;;;12.91;100.00;99831.63;6091190;19;20015;-86
2023/09/22 05:15:50;;;;;;;11.93;7.55;;;;;;;12.86;100.00;99832.88;6095759;19;20014;-85
2023/09/22 05:18:04;;;;;;;13.68;7.72;;;;;;;12.86;100.00;99838.16;6085027;19;20009;-86
2023/09/22 05:20:20;;;;;;;13.38;6.97;;;;;;;12.84;100.00;99840.03;6081630;19;20011;-89
2023/09/22 05:22:30;;;;;;;11.50;5.93;;;;;;;12.86;100.00;99846.06;6101375;19;20093;-89
2023/09/22 05:24:38;;;;;;;12.85;6.88;;;;;;;12.82;100.00;99850.69;6079232;19;20082;-89
2023/09/22 05:26:49;;;;;;;11.65;6.22;;;;;;;12.83;100.00;99846.28;6070041;19;20018;-88
2023/09/22 05:29:09;;;;;;;13.23;6.18;;;;;;;12.79;100.00;99850.03;6092656;19;20654;-88
2023/09/22 05:31:19;;;;;;;13.57;6.70;;;;;;;12.73;100.00;99846.84;6095364;19;20048;-88
2023/09/22 05:33:29;;;;;;;9.52;5.45;;;;;;;12.78;100.00;99854.47;6091109;19;20426;-89
2023/09/22 05:35:47;;;;;;;12.65;5.18;;;;;;;12.78;100.00;99851.00;6094020;19;20332;-90
2023/09/22 05:38:01;;;;;;;9.65;5.32;;;;;;;12.77;100.00;99852.78;6094238;19;20294;-89
2023/09/22 05:40:12;;;;;;;8.40;4.78;;;;;;;12.82;100.00;99857.75;6101305;19;20018;-90
2023/09/22 05:42:25;;;;;;;10.88;5.68;;;;;;;12.81;100.00;99858.69;6100871;19;20011;-90
2023/09/22 05:44:34;;;;;;;9.85;4.95;;;;;;;12.81;100.00;99859.53;6105908;19;20014;-90
2023/09/22 05:46:43;;;;;;;10.23;5.68;;;;;;;12.84;100.00;99863.75;6069004;19;20002;-89
2023/09/22 05:49:14;;;;;;;9.75;5.00;;;;;;;12.81;100.00;99859.53;6099184;19;20010;-89
2023/09/22 05:51:35;;;;;;;10.75;5.80;;;;;;;12.79;100.00;99847.41;6095383;19;20277;-88
2023/09/22 05:53:44;;;;;;;8.23;4.38;;;;;;;12.82;100.00;99849.81;6079216;19;20030;-88
2023/09/22 05:55:53;;;;;;;8.23;4.25;;;;;;;12.82;100.00;99865.66;6076819;19;20062;-89
2023/09/22 05:58:13;;;;;;;9.23;4.18;;;;;;;12.79;100.00;99865.84;6086359;19;20018;-90
2023/09/22 06:00:26;;;;;;;10.18;4.65;;;;;;;12.76;100.00;99880.09;6105949;19;20015;-90
2023/09/22 06:02:33;;;;;;;9.33;4.47;;;;;;;12.76;100.00;99861.63;6101106;19;20014;-88
2023/09/22 06:04:40;;;;;;;6.85;3.65;;;;;;;12.82;100.00;99879.69;6078332;19;20139;-89
2023/09/22 06:06:48;;;;;;;5.97;3.13;;;;;;;12.71;100.00;99858.44;6083667;19;20321;-88
2023/09/22 06:08:58;;;;;;;21.30;4.13;;;;;;;12.76;100.00;99868.69;6071225;19;20080;-90
2023/09/22 06:11:10;;;;;;;9.20;4.07;;;;;;;12.78;100.00;99870.28;6106575;19;20030;-88
2023/09/22 06:13:18;;;;;;;7.63;3.30;;;;;;;12.81;100.00;99878.00;6077670;19;20047;-87
2023/09/22 06:15:34;;;;;;;7.57;3.55;;;;;;;12.79;100.00;99871.97;6099998;19;20310;-88
2023/09/22 06:17:41;;;;;;;8.10;3.40;;;;;;;12.85;100.00;99876.00;6094437;19;20036;-89
2023/09/22 06:20:08;;;;;;;5.95;3.45;;;;;;;12.78;100.00;99872.94;6093349;19;20014;-88
2023/09/22 06:22:18;;;;;;;6.30;3.40;;;;;;;12.76;100.00;99872.16;6097013;19;20578;-88
2023/09/22 06:24:30;;;;;;;6.72;3.00;;;;;;;12.76;100.00;99885.34;6102182;19;20422;-89
2023/09/22 06:26:38;;;;;;;6.63;3.00;;;;;;;12.74;100.00;99885.47;6058490;19;20352;-88
2023/09/22 06:28:44;;;;;;;5.68;3.00;;;;;;;12.73;100.00;99891.66;6093601;19;20014;-89
2023/09/22 06:31:02;;;;;;;5.70;3.03;;;;;;;12.74;100.00;99882.84;6100466;19;20031;-88
2023/09/22 06:33:12;;;;;;;5.78;3.40;;;;;;;12.73;100.00;99885.56;6089995;19;20357;-88
2023/09/22 06:35:22;;;;;;;6.10;3.03;;;;;;;12.67;100.00;99894.72;6099256;19;20066;-88
2023/09/22 06:37:34;;;;;;;7.25;2.90;;;;;;;12.66;100.00;99877.19;6098575;19;20531;-88
2023/09/22 06:39:56;;;;;;;10.40;3.35;;;;;;;12.71;100.00;99895.34;6097850;19;20027;-89
2023/09/22 06:42:08;;;;;;;4.40;2.42;;;;;;;12.72;100.00;99899.69;6076504;19;20035;-85
2023/09/22 06:44:16;;;;;;;6.45;2.88;;;;;;;12.78;100.00;99904.56;6095069;19;20336;-87
2023/09/22 06:46:23;;;;;;;8.18;3.03;;;;;;;12.72;100.00;99908.44;6079419;19;20790;-87
2023/09/22 06:48:31;;;;;;;4.65;3.28;;;;;;;12.74;100.00;99906.56;6095696;19;20010;-88
2023/09/22 06:50:44;;;;;;;7.45;3.10;;;;;;;12.71;100.00;99905.88;6086670;19;20010;-88
2023/09/22 06:52:58;;;;;;;7.20;2.92;;;;;;;12.77;100.00;99920.47;6089642;19;20507;-87
2023/09/22 06:55:08;;;;;;;4.38;2.78;;;;;;;12.79;100.00;99915.94;6100702;19;20014;-84
2023/09/22 06:57:18;;;;;;;5.10;2.50;;;;;;;12.84;100.00;99909.44;6085310;19;20011;-85
2023/09/22 06:59:28;;;;;;;4.85;2.80;;;;;;;12.98;100.00;99912.94;6073641;19;20104;-83
2023/09/22 07:01:35;;;;;;;7.18;2.90;;;;;;;13.01;100.00;99918.91;6097748;19;20272;-85
2023/09/22 07:03:45;;;;;;;6.38;2.97;;;;;;;13.05;100.00;99925.66;6090245;19;20003;-83
2023/09/22 07:05:54;;;;;;;6.65;2.70;;;;;;;13.14;100.00;99932.13;6086104;19;20022;-85
2023/09/22 07:08:09;;;;;;;4.70;2.90;;;;;;;13.15;100.00;99932.00;6085375;19;20059;-84
2023/09/22 07:10:17;;;;;;;3.55;2.53;;;;;;;13.12;100.00;99934.84;6070303;19;20792;-85
2023/09/22 07:12:32;;;;;;;4.03;2.45;;;;;;;13.22;100.00;99935.09;6072242;19;20035;-85
2023/09/22 07:14:40;;;;;;;5.07;2.88;;;;;;;13.14;100.00;99943.53;6082733;19;20052;-85
2023/09/22 07:16:53;;;;;;;2.65;2.22;;;;;;;13.00;100.00;99940.91;6070715;19;20014;-84
2023/09/22 07:19:02;;;;;;;5.05;2.72;;;;;;;13.05;100.00;99951.19;6090466;19;20026;-84
2023/09/22 07:21:11;;;;;;;5.82;2.80;;;;;;;13.05;100.00;99944.09;6086089;19;20388;-84
2023/09/22 07:23:23;;;;;;;4.50;2.42;;;;;;;13.04;100.00;99950.34;6081944;19;20313;-84
2023/09/22 07:25:38;;;;;;;5.07;2.60;;;;;;;13.02;100.00;99951.38;6069408;19;20023;-83
2023/09/22 07:27:47;;;;;;;4.32;2.33;;;;;;;13.01;100.00;99963.72;6067619;19;20429;-86
2023/09/22 07:29:54;;;;;;;3.60;2.10;;;;;;;12.99;100.00;99956.88;6080514;19;20503;-85
2023/09/22 07:32:06;;;;;;;5.57;2.63;;;;;;;13.04;100.00;99960.88;6093487;19;20022;-84
2023/09/22 07:34:18;;;;;;;4.15;2.65;;;;;;;13.07;100.00;99958.03;6086360;19;20378;-86
2023/09/22 07:36:30;;;;;;;5.22;2.90;;;;;;;13.02;100.00;99952.22;6084507;19;20021;-86
2023/09/22 07:38:46;;;;;;;5.90;3.05;;;;;;;13.14;100.00;99969.91;6084946;19;20188;-84
2023/09/22 07:40:56;;;;;;;6.60;3.30;;;;;;;12.96;100.00;99968.44;6087967;19;20086;-85
2023/09/22 07:43:06;;;;;;;6.65;2.80;;;;;;;13.01;100.00;99971.63;6091127;19;20300;-84
2023/09/22 07:45:15;;;;;;;7.93;3.63;;;;;;;13.02;100.00;99961.94;6092732;19;20046;-85
2023/09/22 07:47:26;;;;;;;5.28;2.83;;;;;;;13.15;100.00;99961.03;6071481;19;20469;-84
2023/09/22 07:49:34;;;;;;;6.40;2.72;;;;;;;13.29;100.00;99964.59;6087655;19;20018;-85
2023/09/22 07:51:43;;;;;;;5.85;2.92;;;;;;;13.21;100.00;99978.25;6089886;19;20021;-85
2023/09/22 07:53:59;;;;;;;6.72;2.95;;;;;;;13.28;100.00;99970.81;6090312;19;20015;-85
2023/09/22 07:56:12;;;;;;;5.82;3.22;;;;;;;13.28;100.00;99981.38;6093442;19;20018;-86
2023/09/22 07:58:22;;;;;;;5.20;2.85;;;;;;;13.27;100.00;99971.75;6088639;19;20106;-84
2023/09/22 08:00:30;;;;;;;5.22;2.53;;;;;;;13.34;100.00;99988.88;6085603;19;20098;-84
2023/09/22 08:02:43;;;;;;;4.57;3.00;;;;;;;13.40;100.00;99977.91;6070512;19;20015;-85
2023/09/22 08:04:57;;;;;;;5.82;3.45;;;;;;;13.50;100.00;99978.16;6085984;19;20277;-82
2023/09/22 08:07:08;;;;;;;5.40;2.83;;;;;;;13.57;100.00;100001.41;6090061;19;20113;-84
2023/09/22 08:09:18;;;;;;;6.65;3.72;;;;;;;13.50;100.00;100008.03;6076401;19;20368;-84
2023/09/22 08:11:25;;;;;;;7.50;3.30;;;;;;;13.53;100.00;100001.69;6085733;19;20014;-85
2023/09/22 08:13:37;;;;;;;5.32;3.22;;;;;;;13.50;100.00;100002.75;6082662;19;20173;-85
2023/09/22 08:15:44;;;;;;;6.50;3.42;;;;;;;13.43;100.00;99996.22;6090745;19;20388;-86
2023/09/22 08:17:56;;;;;;;6.13;3.70;;;;;;;13.49;100.00;100013.44;6075829;19;20335;-84
2023/09/22 08:20:00;;;;;;;6.50;3.45;;;;;;;13.50;100.00;100010.66;6084415;19;20477;-85
2023/09/22 08:22:10;;;;;;;7.57;3.75;;;;;;;13.59;100.00;100011.88;6081419;19;20010;-86
2023/09/22 08:24:26;;;;;;;5.97;3.47;;;;;;;13.75;100.00;100014.34;6087209;19;20367;-84
2023/09/22 08:26:33;;;;;;;7.68;3.90;;;;;;;13.73;100.00;100013.59;6084839;19;20007;-84
2023/09/22 08:28:42;;;;;;;7.55;3.65;;;;;;;13.67;100.00;100020.13;6075281;19;20340;-85
2023/09/22 08:30:50;;;;;;;8.38;3.58;;;;;;;13.62;100.00;100032.78;6084491;19;20253;-84
2023/09/22 08:33:03;;;;;;;5.60;3.03;;;;;;;13.60;100.00;100030.22;6072447;19;20025;-84
2023/09/22 08:35:16;;;;;;;5.38;2.92;;;;;;;13.55;100.00;100029.69;6087015;19;20193;-84
2023/09/22 08:37:36;;;;;;;5.78;3.45;;;;;;;13.75;100.00;100031.03;6090776;19;20007;-86
2023/09/22 08:39:47;;;;;;;8.32;3.13;;;;;;;13.73;100.00;100032.06;6087292;19;20019;-86
2023/09/22 08:41:54;;;;;;;7.35;3.20;;;;;;;13.91;100.00;100041.41;6091715;19;20014;-85
2023/09/22 08:44:06;;;;;;;6.13;3.17;;;;;;;13.93;100.00;100039.50;6094405;19;20327;-85
2023/09/22 08:46:15;;;;;;;5.90;3.38;;;;;;;14.23;100.00;100030.44;6094950;19;20150;-85
2023/09/22 08:48:23;;;;;;;5.40;3.40;;;;;;;14.60;100.00;100033.22;6097292;19;20253;-86
2023/09/22 08:50:31;;;;;;;5.68;3.38;;;;;;;14.66;100.00;100038.91;6102386;19;20018;-85
2023/09/22 08:52:38;;;;;;;10.13;3.67;;;;;;;15.11;100.00;100051.63;6096943;19;20007;-86
2023/09/22 08:54:51;;;;;;;7.82;3.58;;;;;;;14.79;100.00;100044.19;6097073;19;20156;-87
2023/09/22 08:57:02;;;;;;;5.43;3.22;;;;;;;14.67;100.00;100048.53;6099621;19;20006;-86
2023/09/22 08:59:14;;;;;;;6.85;3.28;;;;;;;14.54;100.00;100052.16;6100604;19;20011;-85
2023/09/22 09:01:27;;;;;;;4.72;3.10;;;;;;;14.44;100.00;100049.28;6082259;19;20010;-85
2023/09/22 09:03:36;;;;;;;6.00;3.15;;;;;;;14.35;100.00;100071.91;6103814;19;20507;-85
2023/09/22 09:05:45;;;;;;;5.90;2.97;;;;;;;14.31;100.00;100059.00;6100160;19;20018;-86
2023/09/22 09:07:53;;;;;;;6.80;3.50;;;;;;;14.40;100.00;100053.94;6103544;19;20025;-86
2023/09/22 09:10:05;;;;;;;6.05;3.35;;;;;;;14.61;100.00;100042.81;6095269;19;20035;-85
2023/09/22 09:12:13;;;;;;;6.43;3.40;;;;;;;15.07;100.00;100058.09;6086290;19;20267;-84
2023/09/22 09:14:28;;;;;;;6.30;3.53;;;;;;;15.41;100.00;100055.66;6102490;19;20018;-84
2023/09/22 09:16:39;;;;;;;6.60;3.65;;;;;;;15.19;100.00;100066.94;6083766;19;20463;-86
2023/09/22 09:18:50;;;;;;;4.70;3.20;;;;;;;15.52;100.00;100064.50;6080632;19;20510;-85
2023/09/22 09:21:14;;;;;;;7.28;3.67;;;;;;;15.83;100.00;100064.06;6080756;19;20047;-85
2023/09/22 09:23:28;;;;;;;7.47;3.80;;;;;;;16.09;99.67;100064.72;6097282;19;20044;-84
2023/09/22 09:25:44;;;;;;;5.95;3.17;;;;;;;16.22;99.48;100069.00;6087177;19;20035;-85
2023/09/22 09:28:08;;;;;;;7.57;3.35;;;;;;;16.29;98.68;100066.72;6095249;19;20039;-85
2023/09/22 09:30:22;;;;;;;6.18;3.17;;;;;;;16.39;99.04;100070.34;6092876;19;20031;-86
2023/09/22 09:32:32;;;;;;;5.28;3.33;;;;;;;16.79;96.07;100074.38;6095454;19;20269;-84
2023/09/22 09:34:45;;;;;;;6.28;3.22;;;;;;;16.18;98.14;100070.19;6058363;19;20460;-85
2023/09/22 09:37:13;;;;;;;4.65;3.28;;;;;;;15.50;100.00;100070.84;6094257;19;20010;-85
2023/09/22 09:39:52;;;;;;;5.70;3.17;;;;;;;15.43;100.00;100080.19;6091112;19;20043;-84
2023/09/22 09:42:06;;;;;;;4.20;3.03;;;;;;;15.06;100.00;100069.63;6089805;19;20003;-84
2023/09/22 09:44:18;;;;;;;6.53;3.30;;;;;;;15.36;100.00;100080.66;6094680;19;20022;-84
2023/09/22 09:46:30;;;;;;;7.05;3.53;;;;;;;15.35;100.00;100084.28;6066389;19;20021;-84
2023/09/22 09:48:40;;;;;;;4.47;2.95;;;;;;;15.39;100.00;100086.69;6066733;19;20462;-86
2023/09/22 09:50:53;;;;;;;4.78;2.60;;;;;;;15.54;100.00;100083.78;6090319;19;20007;-85
2023/09/22 09:53:08;;;;;;;5.28;2.75;;;;;;;15.39;100.00;100078.75;6087970;19;20060;-84
2023/09/22 09:55:15;;;;;;;3.88;2.53;;;;;;;15.39;100.00;100081.41;6095179;19;20474;-85
2023/09/22 09:57:27;;;;;;;6.30;3.15;;;;;;;15.66;100.00;100089.13;6089796;19;20428;-85
2023/09/22 09:59:38;;;;;;;7.18;3.10;;;;;;;15.95;97.70;100090.47;6088576;19;20011;-85